Terminal Aerodrome Forecast
Issued by NWS

Home | Current Version | Previous Version | Text Only | Print | Product List | Glossary On
Versions: 1 2 3 4 5 6 7 8 9 10 11 12 13 14 15 16
000
FTUS43 KAPX 242300
TAFTVC
TAF
KTVC 242327Z 2500/2524 23003KT P6SM OVC015
     FM250700 23004KT 6SM -DZ BR OVC007
     FM251300 28009KT P6SM BKN012
     FM251600 28010G18KT P6SM SCT035=

USA.gov is the U.S. government's official web portal to all federal, state and local government web resources and services.